^^
Datos históricos de la estación: Murcia-Puente Tocinos
Diario Informe para Mayo 15, 2019 Unidades:  Ambas    Ingés   Métrico
Diario Semanal Mensual Anual
  Máxima: Mínima: Promedio:
Temperatura: 90.1 °F /  32.3 °C 58.6 °F /  14.8 °C 70.5 °F /  21.4 °C
Punto de rocio: 60.4 °F /  15.8 °C 47.8 °F /  8.8 °C 51.6 °F /  10.9 °C
Humedad: 81% 25% 54%
Velocidad viento: 16.8mph /  27km/h - 5.8mph /  9.3km/h
Racha viento: 30mph /  48.3km/h - -
Viento- - SE
Presión: 29.9 in /  1014.0 hPa 29.7 in /  1006.2 hPa -
Precipitación: 0 in /  0.0 mm    
 
 
Tabla de datos para Mayo 15, 2019
Hora Temperatura Punto de rocio Presión Viento Velocidad viento Racha viento Humedad Intensidad lluvia(por hora) Nubes
00:04 64.9 °F /  18.3 °C 50.2 °F /  10.1 °C 29.9in /  1013.9hPa SSE 2mph /  3.2km/h 5mph /  8km/h 58.7% 0in /  0.0mm
00:09 64.9 °F /  18.3 °C 50.4 °F /  10.2 °C 29.9in /  1013.9hPa SSE 1.9mph /  3.1km/h 5mph /  8km/h 59% 0in /  0.0mm
00:14 64.8 °F /  18.2 °C 50.4 °F /  10.2 °C 29.9in /  1013.9hPa SSE 1.8mph /  2.9km/h 2.3mph /  3.7km/h 59.4% 0in /  0.0mm
00:19 64.8 °F /  18.2 °C 50.4 °F /  10.2 °C 29.9in /  1014.0hPa SSE 1.1mph /  1.8km/h 2mph /  3.2km/h 59.8% 0in /  0.0mm
00:24 64.6 °F /  18.1 °C 50.4 °F /  10.2 °C 29.9in /  1014.0hPa Calm   1.4mph /  2.3km/h 60% 0in /  0.0mm
00:29 64.6 °F /  18.1 °C 50.4 °F /  10.2 °C 29.9in /  1014.0hPa Calm   1mph /  1.6km/h 60% 0in /  0.0mm
00:34 64.6 °F /  18.1 °C 50.4 °F /  10.2 °C 29.9in /  1014.0hPa Calm   3.6mph /  5.8km/h 60% 0in /  0.0mm
00:39 64.4 °F /  18 °C 50.2 °F /  10.1 °C 29.9in /  1013.9hPa SSE 0.6mph /  0.9km/h 4mph /  6.4km/h 59.9% 0in /  0.0mm
00:44 64.2 °F /  17.9 °C 50 °F /  10 °C 29.9in /  1013.9hPa Sur 1.4mph /  2.2km/h 3.1mph /  5km/h 60.1% 0in /  0.0mm
00:49 64 °F /  17.8 °C 50.2 °F /  10.1 °C 29.9in /  1013.9hPa Sur 1.4mph /  2.2km/h 4.6mph /  7.4km/h 60.8% 0in /  0.0mm
00:54 63.9 °F /  17.7 °C 50.2 °F /  10.1 °C 29.9in /  1013.9hPa ESE 1.4mph /  2.2km/h 5mph /  8km/h 61% 0in /  0.0mm
00:59 63.9 °F /  17.7 °C 50.2 °F /  10.1 °C 29.9in /  1013.9hPa SE 1.7mph /  2.7km/h 4mph /  6.4km/h 61% 0in /  0.0mm
01:04 63.9 °F /  17.7 °C 50 °F /  10 °C 29.9in /  1013.9hPa SE 2mph /  3.2km/h 4.7mph /  7.6km/h 60.6% 0in /  0.0mm
01:09 63.9 °F /  17.7 °C 48.9 °F /  9.4 °C 29.9in /  1013.8hPa SE 2.3mph /  3.7km/h 5mph /  8km/h 58.2% 0in /  0.0mm
01:14 63.7 °F /  17.6 °C 48.2 °F /  9 °C 29.9in /  1013.8hPa SSE 2.9mph /  4.7km/h 5mph /  8km/h 57% 0in /  0.0mm
01:19 63.7 °F /  17.6 °C 48.6 °F /  9.2 °C 29.9in /  1013.8hPa Sur 2.7mph /  4.4km/h 5mph /  8km/h 57.8% 0in /  0.0mm
01:24 63.5 °F /  17.5 °C 48.4 °F /  9.1 °C 29.9in /  1013.7hPa Sur 2.4mph /  3.9km/h 4mph /  6.4km/h 57.8% 0in /  0.0mm
01:28 63.5 °F /  17.5 °C 49.5 °F /  9.7 °C 29.9in /  1013.7hPa Sur 2.2mph /  3.5km/h 3mph /  4.8km/h 60.3% 0in /  0.0mm
01:37 63.3 °F /  17.4 °C 50.5 °F /  10.3 °C 29.9in /  1013.6hPa Sur 1.4mph /  2.3km/h 1.2mph /  1.9km/h 63% 0in /  0.0mm
01:44 63.1 °F /  17.3 °C 50.7 °F /  10.4 °C 29.9in /  1013.6hPa Calm   1.4mph /  2.3km/h 64% 0in /  0.0mm
01:49 63 °F /  17.2 °C 50.7 °F /  10.4 °C 29.9in /  1013.6hPa Sur 1.3mph /  2.1km/h 2mph /  3.2km/h 64.5% 0in /  0.0mm
01:50 63 °F /  17.2 °C 51.1 °F /  10.6 °C 29.9in /  1013.4hPa Sur 1.4mph /  2.3km/h 1.2mph /  1.9km/h 65% 0in /  0.0mm
01:56 62.8 °F /  17.1 °C 50.7 °F /  10.4 °C 29.9in /  1013.4hPa Sur 1.4mph /  2.3km/h 1.2mph /  1.9km/h 65% 0in /  0.0mm
02:24 61.7 °F /  16.5 °C 50.4 °F /  10.2 °C 29.9in /  1013.0hPa Calm   2.3mph /  3.7km/h 66% 0in /  0.0mm
02:29 61.5 °F /  16.4 °C 50.2 °F /  10.1 °C 29.9in /  1013.1hPa Calm   2.4mph /  3.9km/h 66% 0in /  0.0mm
02:34 61.5 °F /  16.4 °C 50.2 °F /  10.1 °C 29.9in /  1013.0hPa Calm   2.4mph /  3.9km/h 66% 0in /  0.0mm
02:39 61.5 °F /  16.4 °C 49.6 °F /  9.8 °C 29.9in /  1012.8hPa North 0.5mph /  0.8km/h 2.9mph /  4.7km/h 65.1% 0in /  0.0mm
02:44 61.3 °F /  16.3 °C 49.5 °F /  9.7 °C 29.9in /  1012.8hPa North 1.4mph /  2.2km/h 3mph /  4.8km/h 65% 0in /  0.0mm
02:49 61.3 °F /  16.3 °C 49.8 °F /  9.9 °C 29.9in /  1012.8hPa North 1.4mph /  2.2km/h 3mph /  4.8km/h 65.8% 0in /  0.0mm
02:54 61.3 °F /  16.3 °C 49.6 °F /  9.8 °C 29.9in /  1012.6hPa North 1.4mph /  2.2km/h 3mph /  4.8km/h 65.2% 0in /  0.0mm
02:59 61.3 °F /  16.3 °C 49.5 °F /  9.7 °C 29.9in /  1012.6hPa North 1.4mph /  2.2km/h 2.3mph /  3.7km/h 65% 0in /  0.0mm
03:04 61.3 °F /  16.3 °C 49.3 °F /  9.6 °C 29.9in /  1012.6hPa ENE 1.4mph /  2.2km/h 4.6mph /  7.4km/h 64.4% 0in /  0.0mm
03:09 61.3 °F /  16.3 °C 48.9 °F /  9.4 °C 29.9in /  1012.4hPa Este 1.6mph /  2.6km/h 5mph /  8km/h 63.7% 0in /  0.0mm
03:14 61.3 °F /  16.3 °C 48.7 °F /  9.3 °C 29.9in /  1012.4hPa Este 2mph /  3.2km/h 5mph /  8km/h 63.3% 0in /  0.0mm
03:19 61.2 °F /  16.2 °C 48.6 °F /  9.2 °C 29.9in /  1012.4hPa Este 1.8mph /  2.9km/h 2.4mph /  3.9km/h 63% 0in /  0.0mm
03:24 61.2 °F /  16.2 °C 48.6 °F /  9.2 °C 29.9in /  1012.4hPa Este 1.4mph /  2.2km/h 2.3mph /  3.7km/h 63.1% 0in /  0.0mm
03:29 61.2 °F /  16.2 °C 48.9 °F /  9.4 °C 29.9in /  1012.4hPa NNO 0.9mph /  1.5km/h 3.6mph /  5.8km/h 64% 0in /  0.0mm
03:34 60.8 °F /  16 °C 48.9 °F /  9.4 °C 29.9in /  1012.4hPa Calm   4mph /  6.4km/h 64.6% 0in /  0.0mm
03:39 60.4 °F /  15.8 °C 48.9 °F /  9.4 °C 29.9in /  1012.2hPa NNO 0.7mph /  1.2km/h 4mph /  6.4km/h 65.8% 0in /  0.0mm
03:44 60.3 °F /  15.7 °C 49.1 °F /  9.5 °C 29.9in /  1012.2hPa NO 2mph /  3.2km/h 4.6mph /  7.4km/h 66.4% 0in /  0.0mm
03:49 60.3 °F /  15.7 °C 49.3 °F /  9.6 °C 29.9in /  1012.2hPa NO 1.9mph /  3.1km/h 5mph /  8km/h 67% 0in /  0.0mm
03:54 60.1 °F /  15.6 °C 49.1 °F /  9.5 °C 29.9in /  1012.0hPa NO 1.8mph /  2.9km/h 3mph /  4.8km/h 67% 0in /  0.0mm
03:59 60.1 °F /  15.6 °C 49.1 °F /  9.5 °C 29.9in /  1012.0hPa NO 1.1mph /  1.7km/h   67% 0in /  0.0mm
04:04 60.1 °F /  15.6 °C 49.1 °F /  9.5 °C 29.9in /  1012.0hPa Calm     67% 0in /  0.0mm
04:09 60.3 °F /  15.7 °C 49.3 °F /  9.6 °C 29.9in /  1011.9hPa Calm     67% 0in /  0.0mm
04:14 60.3 °F /  15.7 °C 49.5 °F /  9.7 °C 29.9in /  1011.9hPa Calm     67.2% 0in /  0.0mm
04:19 60.4 °F /  15.8 °C 49.1 °F /  9.5 °C 29.9in /  1011.9hPa Calm   4.7mph /  7.6km/h 66.2% 0in /  0.0mm
04:24 60.6 °F /  15.9 °C 48.7 °F /  9.3 °C 29.9in /  1011.7hPa Calm   5.2mph /  8.4km/h 65% 0in /  0.0mm
04:29 60.6 °F /  15.9 °C 48.7 °F /  9.3 °C 29.9in /  1011.7hPa SE 0.8mph /  1.3km/h 5mph /  8km/h 65% 0in /  0.0mm
04:34 60.4 °F /  15.8 °C 48.6 °F /  9.2 °C 29.9in /  1011.7hPa SE 2.4mph /  3.9km/h 5mph /  8km/h 65% 0in /  0.0mm
04:39 60.3 °F /  15.7 °C 48.9 °F /  9.4 °C 29.9in /  1011.6hPa SE 2.1mph /  3.3km/h 4.6mph /  7.4km/h 65.8% 0in /  0.0mm
04:44 60.1 °F /  15.6 °C 48.9 °F /  9.4 °C 29.9in /  1011.6hPa SE 1.4mph /  2.2km/h 5mph /  8km/h 66.9% 0in /  0.0mm
04:49 59.7 °F /  15.4 °C 48.7 °F /  9.3 °C 29.9in /  1011.6hPa SE 1.6mph /  2.5km/h 5mph /  8km/h 67% 0in /  0.0mm
04:54 59.7 °F /  15.4 °C 48.7 °F /  9.3 °C 29.9in /  1011.4hPa SE 1.8mph /  2.9km/h 4.3mph /  6.9km/h 67.2% 0in /  0.0mm
04:59 59.7 °F /  15.4 °C 49.1 °F /  9.5 °C 29.9in /  1011.4hPa SO 1.6mph /  2.6km/h 5mph /  8km/h 68% 0in /  0.0mm
05:04 59.7 °F /  15.4 °C 48.7 °F /  9.3 °C 29.9in /  1011.4hPa SO 1.4mph /  2.2km/h 3mph /  4.8km/h 67% 0in /  0.0mm
05:09 59.7 °F /  15.4 °C 48.7 °F /  9.3 °C 29.9in /  1011.3hPa SO 0.9mph /  1.4km/h 2.4mph /  3.9km/h 67% 0in /  0.0mm
05:14 59.7 °F /  15.4 °C 48.9 °F /  9.4 °C 29.9in /  1011.3hPa Calm   3.5mph /  5.6km/h 67.7% 0in /  0.0mm
05:19 59.7 °F /  15.4 °C 49.3 °F /  9.6 °C 29.9in /  1011.3hPa SO 0.7mph /  1.1km/h 3.5mph /  5.6km/h 68% 0in /  0.0mm
05:24 60.1 °F /  15.6 °C 49.1 °F /  9.5 °C 29.9in /  1011.2hPa SSO 1.8mph /  2.9km/h 5.8mph /  9.3km/h 67% 0in /  0.0mm
05:29 60.1 °F /  15.6 °C 48.9 °F /  9.4 °C 29.9in /  1011.2hPa SSO 2.4mph /  3.9km/h 6.9mph /  11.1km/h 66.6% 0in /  0.0mm
05:34 60.1 °F /  15.6 °C 48.9 °F /  9.4 °C 29.9in /  1011.2hPa SO 3.6mph /  5.8km/h 7mph /  11.3km/h 66.5% 0in /  0.0mm
05:39 60.1 °F /  15.6 °C 48.7 °F /  9.3 °C 29.9in /  1011.0hPa SSO 3.4mph /  5.5km/h 6mph /  9.7km/h 66% 0in /  0.0mm
05:44 60.1 °F /  15.6 °C 48.7 °F /  9.3 °C 29.9in /  1011.0hPa SSO 3.1mph /  5km/h 7.4mph /  11.9km/h 66% 0in /  0.0mm
05:49 60.1 °F /  15.6 °C 48.6 °F /  9.2 °C 29.9in /  1011.0hPa SSO 3.4mph /  5.5km/h 7mph /  11.3km/h 66% 0in /  0.0mm
05:54 59.9 °F /  15.5 °C 48.7 °F /  9.3 °C 29.9in /  1010.9hPa SO 4mph /  6.5km/h 7mph /  11.3km/h 66.4% 0in /  0.0mm
05:59 59.9 °F /  15.5 °C 48.9 °F /  9.4 °C 29.9in /  1010.9hPa SSO 3.6mph /  5.8km/h 7.4mph /  11.9km/h 67% 0in /  0.0mm
06:04 59.7 °F /  15.4 °C 48.7 °F /  9.3 °C 29.9in /  1010.9hPa SO 3.1mph /  5km/h 7mph /  11.3km/h 67% 0in /  0.0mm
06:09 59.7 °F /  15.4 °C 48.7 °F /  9.3 °C 29.9in /  1010.8hPa SO 3.4mph /  5.5km/h 7.4mph /  11.9km/h 67% 0in /  0.0mm
06:14 59.7 °F /  15.4 °C 48.7 °F /  9.3 °C 29.9in /  1010.8hPa SO 4mph /  6.5km/h 9.2mph /  14.8km/h 67.2% 0in /  0.0mm
06:19 59.7 °F /  15.4 °C 49.1 °F /  9.5 °C 29.9in /  1010.8hPa SO 4.5mph /  7.2km/h 9mph /  14.5km/h 68% 0in /  0.0mm
06:24 59.5 °F /  15.3 °C 49.1 °F /  9.5 °C 29.9in /  1010.8hPa SO 5.4mph /  8.7km/h 8mph /  12.9km/h 68% 0in /  0.0mm
06:29 59.5 °F /  15.3 °C 48.9 °F /  9.4 °C 29.9in /  1010.8hPa SO 4.9mph /  7.9km/h 9.7mph /  15.6km/h 68% 0in /  0.0mm
06:34 59.5 °F /  15.3 °C 48.9 °F /  9.4 °C 29.9in /  1010.8hPa SO 4mph /  6.5km/h 10mph /  16.1km/h 68% 0in /  0.0mm
06:39 59.5 °F /  15.3 °C 48.6 °F /  9.2 °C 29.9in /  1010.8hPa SSO 4mph /  6.5km/h 7mph /  11.3km/h 67% 0in /  0.0mm
06:44 59.5 °F /  15.3 °C 48.6 °F /  9.2 °C 29.9in /  1010.8hPa SSE 4mph /  6.5km/h 8.1mph /  13km/h 67% 0in /  0.0mm
06:49 59.4 °F /  15.2 °C 48.4 °F /  9.1 °C 29.9in /  1010.8hPa SSE 4.1mph /  6.6km/h 8mph /  12.9km/h 67% 0in /  0.0mm
06:54 59 °F /  15 °C 48.4 °F /  9.1 °C 29.8in /  1010.7hPa Sur 4.3mph /  6.9km/h 8.1mph /  13km/h 67.8% 0in /  0.0mm
06:59 58.6 °F /  14.8 °C 48.2 °F /  9 °C 29.8in /  1010.7hPa SSE 4.7mph /  7.5km/h 8.1mph /  13km/h 68% 0in /  0.0mm
07:04 58.6 °F /  14.8 °C 48 °F /  8.9 °C 29.9in /  1010.8hPa Sur 5.2mph /  8.4km/h 8.1mph /  13km/h 68% 0in /  0.0mm
07:09 58.6 °F /  14.8 °C 48 °F /  8.9 °C 29.9in /  1010.8hPa SSO 4.8mph /  7.7km/h 8mph /  12.9km/h 67.9% 0in /  0.0mm
07:14 58.6 °F /  14.8 °C 47.8 °F /  8.8 °C 29.9in /  1010.8hPa SSO 4mph /  6.5km/h 7mph /  11.3km/h 67% 0in /  0.0mm
07:19 58.8 °F /  14.9 °C 47.8 °F /  8.8 °C 29.9in /  1010.9hPa SSO 4mph /  6.5km/h 7mph /  11.3km/h 67% 0in /  0.0mm
07:24 58.8 °F /  14.9 °C 48 °F /  8.9 °C 29.9in /  1010.9hPa SSO 4mph /  6.5km/h 6.2mph /  10km/h 67% 0in /  0.0mm
07:29 59 °F /  15 °C 48 °F /  8.9 °C 29.9in /  1010.9hPa Sur 4mph /  6.5km/h 6.2mph /  10km/h 67% 0in /  0.0mm
07:34 59.2 °F /  15.1 °C 48.2 °F /  9 °C 29.9in /  1010.9hPa SSO 4mph /  6.5km/h 6mph /  9.7km/h 67% 0in /  0.0mm
07:39 59.2 °F /  15.1 °C 48.2 °F /  9 °C 29.9in /  1010.8hPa SSO 3.7mph /  6km/h 5.8mph /  9.3km/h 67% 0in /  0.0mm
07:44 59.4 °F /  15.2 °C 48.4 °F /  9.1 °C 29.9in /  1010.8hPa Sur 3.1mph /  5km/h 6mph /  9.7km/h 67% 0in /  0.0mm
07:49 59.5 °F /  15.3 °C 48.6 °F /  9.2 °C 29.9in /  1010.8hPa SO 2.9mph /  4.6km/h 5mph /  8km/h 67% 0in /  0.0mm
07:54 59.7 °F /  15.4 °C 48.6 °F /  9.2 °C 29.9in /  1010.8hPa OSO 2.4mph /  3.9km/h 5.8mph /  9.3km/h 66.5% 0in /  0.0mm
07:59 60.1 °F /  15.6 °C 48.7 °F /  9.3 °C 29.9in /  1010.8hPa OSO 2.6mph /  4.2km/h 6mph /  9.7km/h 66% 0in /  0.0mm
08:04 60.4 °F /  15.8 °C 48.9 °F /  9.4 °C 29.9in /  1010.8hPa OSO 2.9mph /  4.6km/h 5.8mph /  9.3km/h 65.8% 0in /  0.0mm
08:09 60.6 °F /  15.9 °C 48.7 °F /  9.3 °C 29.8in /  1010.7hPa SO 2.9mph /  4.7km/h 6mph /  9.7km/h 65% 0in /  0.0mm
08:14 61 °F /  16.1 °C 48.9 °F /  9.4 °C 29.8in /  1010.7hPa SSO 2.9mph /  4.7km/h 6mph /  9.7km/h 64.8% 0in /  0.0mm
08:19 61.2 °F /  16.2 °C 48.9 °F /  9.4 °C 29.9in /  1010.8hPa Sur 2.7mph /  4.4km/h 5.2mph /  8.4km/h 64% 0in /  0.0mm
08:24 61.2 °F /  16.2 °C 48.6 °F /  9.2 °C 29.9in /  1010.8hPa Sur 2.4mph /  3.9km/h 5mph /  8km/h 63.1% 0in /  0.0mm
08:29 61.3 °F /  16.3 °C 48.7 °F /  9.3 °C 29.9in /  1010.8hPa SO 2.2mph /  3.6km/h 4.7mph /  7.6km/h 63% 0in /  0.0mm
08:34 61.5 °F /  16.4 °C 48.6 °F /  9.2 °C 29.9in /  1010.8hPa Sur 2mph /  3.2km/h 7.4mph /  11.9km/h 62.3% 0in /  0.0mm
08:39 61.5 °F /  16.4 °C 48.4 °F /  9.1 °C 29.8in /  1010.7hPa SSE 2.4mph /  3.9km/h 7mph /  11.3km/h 62% 0in /  0.0mm
08:44 61.5 °F /  16.4 °C 48.4 °F /  9.1 °C 29.8in /  1010.7hPa SSE 3.1mph /  5km/h 7mph /  11.3km/h 62% 0in /  0.0mm
08:49 61.9 °F /  16.6 °C 48.7 °F /  9.3 °C 29.8in /  1010.7hPa Sur 2.9mph /  4.6km/h 5mph /  8km/h 62% 0in /  0.0mm
08:54 62.2 °F /  16.8 °C 48.7 °F /  9.3 °C 29.8in /  1010.7hPa Sur 2.4mph /  3.9km/h 5mph /  8km/h 61.2% 0in /  0.0mm
08:59 62.8 °F /  17.1 °C 49.1 °F /  9.5 °C 29.8in /  1010.7hPa Sur 2.2mph /  3.6km/h 5.9mph /  9.5km/h 61% 0in /  0.0mm
09:04 63.1 °F /  17.3 °C 49.3 °F /  9.6 °C 29.8in /  1010.7hPa SE 2mph /  3.2km/h 6mph /  9.7km/h 60.3% 0in /  0.0mm
09:09 63.7 °F /  17.6 °C 49.3 °F /  9.6 °C 29.8in /  1010.6hPa SO 2.4mph /  3.8km/h 6.4mph /  10.3km/h 59.4% 0in /  0.0mm
09:14 63.9 °F /  17.7 °C 49.3 °F /  9.6 °C 29.8in /  1010.6hPa SO 3.1mph /  5km/h 7mph /  11.3km/h 59% 0in /  0.0mm
09:19 64 °F /  17.8 °C 48.9 °F /  9.4 °C 29.8in /  1010.6hPa SO 3mph /  4.9km/h 7.4mph /  11.9km/h 57.9% 0in /  0.0mm
09:24 64.2 °F /  17.9 °C 48.2 °F /  9 °C 29.8in /  1010.6hPa SO 2.9mph /  4.7km/h 8.1mph /  13km/h 56% 0in /  0.0mm
09:29 64.4 °F /  18 °C 48.4 °F /  9.1 °C 29.8in /  1010.6hPa SO 3.7mph /  5.9km/h 8.5mph /  13.7km/h 55.9% 0in /  0.0mm
09:34 64.8 °F /  18.2 °C 48.2 °F /  9 °C 29.8in /  1010.6hPa SO 5.2mph /  8.4km/h 9.2mph /  14.8km/h 55.2% 0in /  0.0mm
09:39 64.9 °F /  18.3 °C 48.4 °F /  9.1 °C 29.8in /  1010.4hPa SSO 5.3mph /  8.5km/h 9mph /  14.5km/h 55% 0in /  0.0mm
09:44 65.1 °F /  18.4 °C 48.6 °F /  9.2 °C 29.8in /  1010.4hPa SSO 5.4mph /  8.7km/h 8mph /  12.9km/h 54.9% 0in /  0.0mm
09:49 65.7 °F /  18.7 °C 48.6 °F /  9.2 °C 29.8in /  1010.4hPa SO 5mph /  8.1km/h 7mph /  11.3km/h 54% 0in /  0.0mm
09:54 66 °F /  18.9 °C 48.7 °F /  9.3 °C 29.8in /  1010.2hPa SSO 4.3mph /  6.9km/h 7mph /  11.3km/h 53.5% 0in /  0.0mm
09:59 66.4 °F /  19.1 °C 48.7 °F /  9.3 °C 29.8in /  1010.2hPa OSO 3.8mph /  6.1km/h 6mph /  9.7km/h 52.9% 0in /  0.0mm
10:04 66.7 °F /  19.3 °C 48.9 °F /  9.4 °C 29.8in /  1010.2hPa SO 3.1mph /  5km/h 6.2mph /  10km/h 52.8% 0in /  0.0mm
10:09 67.1 °F /  19.5 °C 48.6 °F /  9.2 °C 29.8in /  1010.1hPa OSO 3.4mph /  5.5km/h 6.9mph /  11.1km/h 51.4% 0in /  0.0mm
10:14 67.3 °F /  19.6 °C 48.6 °F /  9.2 °C 29.8in /  1010.1hPa Oeste 4mph /  6.5km/h 7mph /  11.3km/h 51% 0in /  0.0mm
10:19 67.6 °F /  19.8 °C 48.2 °F /  9 °C 29.8in /  1010.1hPa SO 4mph /  6.5km/h 8.1mph /  13km/h 50% 0in /  0.0mm
10:24 67.6 °F /  19.8 °C 48.4 °F /  9.1 °C 29.8in /  1009.9hPa OSO 4mph /  6.5km/h 8.5mph /  13.7km/h 50% 0in /  0.0mm
10:29 67.8 °F /  19.9 °C 48.4 °F /  9.1 °C 29.8in /  1009.9hPa SSO 4.1mph /  6.6km/h 9mph /  14.5km/h 49.7% 0in /  0.0mm
10:34 68.4 °F /  20.2 °C 48.6 °F /  9.2 °C 29.8in /  1009.9hPa Sur 4.3mph /  6.9km/h 8.1mph /  13km/h 49% 0in /  0.0mm
10:39 68.9 °F /  20.5 °C 48.7 °F /  9.3 °C 29.8in /  1009.7hPa Sur 4.5mph /  7.2km/h 8mph /  12.9km/h 48.8% 0in /  0.0mm
10:44 69.3 °F /  20.7 °C 48.6 °F /  9.2 °C 29.8in /  1009.7hPa OSO 4.7mph /  7.6km/h 10mph /  16.1km/h 47.8% 0in /  0.0mm
10:49 69.4 °F /  20.8 °C 48.4 °F /  9.1 °C 29.8in /  1009.7hPa SO 4.9mph /  7.9km/h 10.4mph /  16.7km/h 47% 0in /  0.0mm
10:54 70 °F /  21.1 °C 48.6 °F /  9.2 °C 29.8in /  1009.5hPa SO 5.2mph /  8.4km/h 10mph /  16.1km/h 46.7% 0in /  0.0mm
10:59 70.3 °F /  21.3 °C 48.4 °F /  9.1 °C 29.8in /  1009.5hPa OSO 5mph /  8km/h 9.2mph /  14.8km/h 45.7% 0in /  0.0mm
11:04 70.5 °F /  21.4 °C 48.2 °F /  9 °C 29.8in /  1009.5hPa SO 4.7mph /  7.6km/h 9mph /  14.5km/h 45% 0in /  0.0mm
11:09 70.9 °F /  21.6 °C 48.4 °F /  9.1 °C 29.8in /  1009.4hPa OSO 4.7mph /  7.6km/h 8mph /  12.9km/h 45% 0in /  0.0mm
11:14 71.2 °F /  21.8 °C 48.6 °F /  9.2 °C 29.8in /  1009.4hPa OSO 4.7mph /  7.6km/h 9.2mph /  14.8km/h 44.8% 0in /  0.0mm
11:19 71.8 °F /  22.1 °C 48.7 °F /  9.3 °C 29.8in /  1009.4hPa SSO 4.8mph /  7.8km/h 9mph /  14.5km/h 44.2% 0in /  0.0mm
11:24 72.1 °F /  22.3 °C 48.9 °F /  9.4 °C 29.8in /  1009.3hPa SO 5.2mph /  8.4km/h 8.1mph /  13km/h 43.9% 0in /  0.0mm
11:29 72.7 °F /  22.6 °C 49.1 °F /  9.5 °C 29.8in /  1009.3hPa OSO 4.9mph /  7.9km/h 9.2mph /  14.8km/h 43.3% 0in /  0.0mm
11:34 73.2 °F /  22.9 °C 49.3 °F /  9.6 °C 29.8in /  1009.3hPa OSO 4.3mph /  6.9km/h 9mph /  14.5km/h 43% 0in /  0.0mm
11:39 73.8 °F /  23.2 °C 49.3 °F /  9.6 °C 29.8in /  1009.1hPa Oeste 4.3mph /  6.9km/h 8mph /  12.9km/h 42.3% 0in /  0.0mm
11:44 74.1 °F /  23.4 °C 49.5 °F /  9.7 °C 29.8in /  1009.1hPa SO 4.3mph /  6.9km/h 7mph /  11.3km/h 41.8% 0in /  0.0mm
11:49 74.7 °F /  23.7 °C 49.5 °F /  9.7 °C 29.8in /  1009.1hPa SO 4.1mph /  6.6km/h 7.6mph /  12.2km/h 41% 0in /  0.0mm
11:54 75 °F /  23.9 °C 49.3 °F /  9.6 °C 29.8in /  1008.9hPa Sur 3.6mph /  5.8km/h 8.1mph /  13km/h 40.2% 0in /  0.0mm
11:59 75.2 °F /  24 °C 49.3 °F /  9.6 °C 29.8in /  1008.9hPa SSE 3.8mph /  6.1km/h 8mph /  12.9km/h 40% 0in /  0.0mm
12:04 75.7 °F /  24.3 °C 49.6 °F /  9.8 °C 29.8in /  1008.9hPa SO 4mph /  6.5km/h 6.2mph /  10km/h 39.8% 0in /  0.0mm
12:09 76.3 °F /  24.6 °C 49.6 °F /  9.8 °C 29.8in /  1008.7hPa OSO 3.7mph /  5.9km/h 6mph /  9.7km/h 39.2% 0in /  0.0mm
12:14 76.8 °F /  24.9 °C 49.5 °F /  9.7 °C 29.8in /  1008.7hPa SSO 3.1mph /  5km/h 6.9mph /  11.1km/h 38.3% 0in /  0.0mm
12:19 77.4 °F /  25.2 °C 49.8 °F /  9.9 °C 29.8in /  1008.7hPa SSE 3.3mph /  5.3km/h 7mph /  11.3km/h 38% 0in /  0.0mm
12:24 78.1 °F /  25.6 °C 49.8 °F /  9.9 °C 29.8in /  1008.6hPa SE 3.6mph /  5.8km/h 8.1mph /  13km/h 37.3% 0in /  0.0mm
12:29 78.6 °F /  25.9 °C 50.2 °F /  10.1 °C 29.8in /  1008.6hPa SE 3.4mph /  5.5km/h 8.1mph /  13km/h 37% 0in /  0.0mm
12:34 79.2 °F /  26.2 °C 50.2 °F /  10.1 °C 29.8in /  1008.6hPa SO 3.1mph /  5km/h 5.2mph /  8.4km/h 36.3% 0in /  0.0mm
12:39 79.9 °F /  26.6 °C 50 °F /  10 °C 29.8in /  1008.4hPa SO 3mph /  4.9km/h 8.1mph /  13km/h 35.3% 0in /  0.0mm
12:44 80.1 °F /  26.7 °C 50 °F /  10 °C 29.8in /  1008.4hPa OSO 2.9mph /  4.7km/h 8mph /  12.9km/h 35% 0in /  0.0mm
12:49 80.2 °F /  26.8 °C 49.8 °F /  9.9 °C 29.8in /  1008.4hPa SO 3mph /  4.8km/h 6.9mph /  11.1km/h 34.6% 0in /  0.0mm
12:54 80.4 °F /  26.9 °C 49.8 °F /  9.9 °C 29.8in /  1008.2hPa SO 3.1mph /  5km/h 7mph /  11.3km/h 34.4% 0in /  0.0mm
12:59 80.8 °F /  27.1 °C 49.8 °F /  9.9 °C 29.8in /  1008.2hPa ONO 3mph /  4.8km/h 6mph /  9.7km/h 34% 0in /  0.0mm
13:04 81.1 °F /  27.3 °C 50 °F /  10 °C 29.8in /  1008.2hPa ONO 2.9mph /  4.6km/h 5mph /  8km/h 34% 0in /  0.0mm
13:09 81.1 °F /  27.3 °C 50.2 °F /  10.1 °C 29.8in /  1007.9hPa Oeste 2.7mph /  4.4km/h 5.9mph /  9.5km/h 34% 0in /  0.0mm
13:14 81.7 °F /  27.6 °C 50.2 °F /  10.1 °C 29.8in /  1007.9hPa Sur 2.4mph /  3.9km/h 8.1mph /  13km/h 33.6% 0in /  0.0mm
13:19 82 °F /  27.8 °C 50.2 °F /  10.1 °C 29.8in /  1007.9hPa SO 2.9mph /  4.7km/h 8mph /  12.9km/h 33% 0in /  0.0mm
13:24 82.4 °F /  28 °C 50.2 °F /  10.1 °C 29.8in /  1007.7hPa SO 4mph /  6.5km/h 7mph /  11.3km/h 32.7% 0in /  0.0mm
13:29 82.8 °F /  28.2 °C 50 °F /  10 °C 29.8in /  1007.7hPa SO 3.9mph /  6.2km/h 7.4mph /  11.9km/h 32% 0in /  0.0mm
13:34 83.1 °F /  28.4 °C 50.4 °F /  10.2 °C 29.8in /  1007.7hPa SE 3.6mph /  5.8km/h 7mph /  11.3km/h 32% 0in /  0.0mm
13:39 83.7 °F /  28.7 °C 50.4 °F /  10.2 °C 29.8in /  1007.5hPa SE 3.4mph /  5.5km/h 7mph /  11.3km/h 31.6% 0in /  0.0mm
13:44 84.2 °F /  29 °C 50.2 °F /  10.1 °C 29.8in /  1007.5hPa OSO 3.1mph /  5km/h 6.4mph /  10.3km/h 30.8% 0in /  0.0mm
13:49 84.7 °F /  29.3 °C 50 °F /  10 °C 29.8in /  1007.5hPa SSE 3.3mph /  5.3km/h 6mph /  9.7km/h 30% 0in /  0.0mm
13:54 85.1 °F /  29.5 °C 50.2 °F /  10.1 °C 29.7in /  1007.3hPa Este 3.6mph /  5.8km/h 6mph /  9.7km/h 30% 0in /  0.0mm
13:59 85.5 °F /  29.7 °C 50.5 °F /  10.3 °C 29.7in /  1007.3hPa SE 3.3mph /  5.3km/h 6.9mph /  11.1km/h 30% 0in /  0.0mm
14:04 85.8 °F /  29.9 °C 49.8 °F /  9.9 °C 29.7in /  1007.3hPa SSO 2.9mph /  4.6km/h 7mph /  11.3km/h 29% 0in /  0.0mm
14:09 86.2 °F /  30.1 °C 50 °F /  10 °C 29.7in /  1007.1hPa Sur 3.3mph /  5.3km/h 7mph /  11.3km/h 28.9% 0in /  0.0mm
14:14 86.4 °F /  30.2 °C 49.5 °F /  9.7 °C 29.7in /  1007.1hPa Sur 4mph /  6.5km/h 6mph /  9.7km/h 28% 0in /  0.0mm
14:19 86.4 °F /  30.2 °C 49.5 °F /  9.7 °C 29.7in /  1007.1hPa ESE 3.7mph /  6km/h 6mph /  9.7km/h 28.1% 0in /  0.0mm
14:24 86.5 °F /  30.3 °C 49.6 °F /  9.8 °C 29.7in /  1006.9hPa Sur 3.1mph /  5km/h 6.2mph /  10km/h 28.1% 0in /  0.0mm
14:29 86.7 °F /  30.4 °C 48.9 °F /  9.4 °C 29.7in /  1006.9hPa SO 3.1mph /  5km/h 6mph /  9.7km/h 27.2% 0in /  0.0mm
14:34 86.7 °F /  30.4 °C 49.1 °F /  9.5 °C 29.7in /  1006.9hPa Sur 3.1mph /  5km/h 6.2mph /  10km/h 27.3% 0in /  0.0mm
14:39 87.3 °F /  30.7 °C 48.9 °F /  9.4 °C 29.7in /  1006.9hPa Sur 3.3mph /  5.3km/h 6mph /  9.7km/h 26.9% 0in /  0.0mm
14:44 87.4 °F /  30.8 °C 48.7 °F /  9.3 °C 29.7in /  1006.9hPa Sur 3.6mph /  5.8km/h 6.9mph /  11.1km/h 26.4% 0in /  0.0mm
14:49 87.8 °F /  31 °C 48.7 °F /  9.3 °C 29.7in /  1006.9hPa NNE 3.4mph /  5.4km/h 7mph /  11.3km/h 26% 0in /  0.0mm
14:54 88.2 °F /  31.2 °C 48 °F /  8.9 °C 29.7in /  1006.7hPa SSO 2.9mph /  4.7km/h 6mph /  9.7km/h 25.1% 0in /  0.0mm
14:59 88.7 °F /  31.5 °C 48.4 °F /  9.1 °C 29.7in /  1006.7hPa SSO 3mph /  4.8km/h 8.5mph /  13.7km/h 25% 0in /  0.0mm
15:04 89.1 °F /  31.7 °C 49.3 °F /  9.6 °C 29.7in /  1006.7hPa SO 3.1mph /  5km/h 9mph /  14.5km/h 25.6% 0in /  0.0mm
15:09 89.1 °F /  31.7 °C 49.8 °F /  9.9 °C 29.7in /  1006.5hPa SSE 3.4mph /  5.5km/h 8mph /  12.9km/h 26% 0in /  0.0mm
15:14 89.6 °F /  32 °C 50 °F /  10 °C 29.7in /  1006.5hPa Este 4mph /  6.5km/h 6mph /  9.7km/h 25.9% 0in /  0.0mm
15:19 90.1 °F /  32.3 °C 50.4 °F /  10.2 °C 29.7in /  1006.5hPa SE 3.4mph /  5.5km/h 6.9mph /  11.1km/h 25.8% 0in /  0.0mm
15:24 90.1 °F /  32.3 °C 51.3 °F /  10.7 °C 29.7in /  1006.4hPa SE 2.4mph /  3.9km/h 10.4mph /  16.7km/h 26.6% 0in /  0.0mm
15:29 90 °F /  32.2 °C 51.6 °F /  10.9 °C 29.7in /  1006.4hPa Este 3.4mph /  5.4km/h 10.4mph /  16.7km/h 27% 0in /  0.0mm
15:34 89.8 °F /  32.1 °C 51.1 °F /  10.6 °C 29.7in /  1006.4hPa ENE 5.2mph /  8.4km/h 10.4mph /  16.7km/h 26.7% 0in /  0.0mm
15:39 89.4 °F /  31.9 °C 50.2 °F /  10.1 °C 29.7in /  1006.4hPa North 5.3mph /  8.5km/h 10mph /  16.1km/h 26.1% 0in /  0.0mm
15:44 89.6 °F /  32 °C 50.2 °F /  10.1 °C 29.7in /  1006.4hPa NNE 5.4mph /  8.7km/h 11.5mph /  18.5km/h 26% 0in /  0.0mm
15:49 89.6 °F /  32 °C 50.2 °F /  10.1 °C 29.7in /  1006.4hPa NE 5.7mph /  9.1km/h 12.7mph /  20.4km/h 26% 0in /  0.0mm
15:54 89.6 °F /  32 °C 52.3 °F /  11.3 °C 29.7in /  1006.2hPa NE 6.2mph /  10km/h 17.3mph /  27.8km/h 28.3% 0in /  0.0mm
15:59 88.7 °F /  31.5 °C 55.4 °F /  13 °C 29.7in /  1006.2hPa NE 8.1mph /  13km/h 20.7mph /  33.3km/h 32.4% 0in /  0.0mm
16:04 87.6 °F /  30.9 °C 55.4 °F /  13 °C 29.7in /  1006.3hPa NE 10.7mph /  17.2km/h 21.5mph /  34.6km/h 33.6% 0in /  0.0mm
16:09 86.9 °F /  30.5 °C 55.4 °F /  13 °C 29.7in /  1006.3hPa NNE 11.6mph /  18.7km/h 22mph /  35.4km/h 34.4% 0in /  0.0mm
16:14 85.8 °F /  29.9 °C 55.6 °F /  13.1 °C 29.7in /  1006.3hPa NE 13.5mph /  21.7km/h 22.3mph /  35.9km/h 35.7% 0in /  0.0mm
16:19 85.3 °F /  29.6 °C 55.4 °F /  13 °C 29.7in /  1006.3hPa NE 13.9mph /  22.4km/h 25.3mph /  40.7km/h 36.2% 0in /  0.0mm
16:24 84.9 °F /  29.4 °C 55 °F /  12.8 °C 29.7in /  1006.3hPa NE 14.7mph /  23.7km/h 25mph /  40.2km/h 36% 0in /  0.0mm
16:29 84.7 °F /  29.3 °C 55.2 °F /  12.9 °C 29.7in /  1006.3hPa NE 15mph /  24.1km/h 24.2mph /  38.9km/h 36.5% 0in /  0.0mm
16:34 84.6 °F /  29.2 °C 55 °F /  12.8 °C 29.7in /  1006.3hPa NE 15.6mph /  25.1km/h 25.3mph /  40.7km/h 36.6% 0in /  0.0mm
16:39 83.8 °F /  28.8 °C 54.9 °F /  12.7 °C 29.7in /  1006.2hPa NE 15.3mph /  24.6km/h 25mph /  40.2km/h 37% 0in /  0.0mm
16:44 83.8 °F /  28.8 °C 54.7 °F /  12.6 °C 29.7in /  1006.2hPa NE 14.7mph /  23.7km/h 23mph /  37km/h 36.9% 0in /  0.0mm
16:49 83.7 °F /  28.7 °C 54.5 °F /  12.5 °C 29.7in /  1006.2hPa NNE 14.8mph /  23.9km/h 25.3mph /  40.7km/h 37% 0in /  0.0mm
16:54 83.5 °F /  28.6 °C 54.5 °F /  12.5 °C 29.7in /  1006.2hPa NE 15.2mph /  24.5km/h 25mph /  40.2km/h 37% 0in /  0.0mm
16:59 83.3 °F /  28.5 °C 54.7 °F /  12.6 °C 29.7in /  1006.2hPa NNE 14.9mph /  24km/h 26.3mph /  42.3km/h 37.5% 0in /  0.0mm
17:04 82.6 °F /  28.1 °C 54.1 °F /  12.3 °C 29.7in /  1006.3hPa NE 14.5mph /  23.3km/h 26.5mph /  42.6km/h 37.5% 0in /  0.0mm
17:09 82.6 °F /  28.1 °C 54.3 °F /  12.4 °C 29.7in /  1006.3hPa NE 15mph /  24.1km/h 26mph /  41.8km/h 38% 0in /  0.0mm
17:14 82.2 °F /  27.9 °C 54.3 °F /  12.4 °C 29.7in /  1006.3hPa NNE 15.9mph /  25.6km/h 26.8mph /  43.1km/h 38.2% 0in /  0.0mm
17:19 81.9 °F /  27.7 °C 54.5 °F /  12.5 °C 29.7in /  1006.3hPa NNE 15.7mph /  25.2km/h 29.9mph /  48.1km/h 38.9% 0in /  0.0mm
17:24 81.1 °F /  27.3 °C 54.7 °F /  12.6 °C 29.7in /  1006.3hPa NE 15.2mph /  24.5km/h 30mph /  48.3km/h 40.1% 0in /  0.0mm
17:29 81 °F /  27.2 °C 55 °F /  12.8 °C 29.7in /  1006.3hPa NNE 15.7mph /  25.3km/h 30mph /  48.3km/h 41.1% 0in /  0.0mm
17:34 81 °F /  27.2 °C 55.2 °F /  12.9 °C 29.7in /  1006.5hPa NE 16.8mph /  27km/h 26.5mph /  42.6km/h 41.3% 0in /  0.0mm
17:39 80.8 °F /  27.1 °C 55.6 °F /  13.1 °C 29.7in /  1006.5hPa NNE 16.4mph /  26.4km/h 26mph /  41.8km/h 42% 0in /  0.0mm
17:44 80.6 °F /  27 °C 55.8 °F /  13.2 °C 29.7in /  1006.5hPa NE 15.6mph /  25.1km/h 25.3mph /  40.7km/h 42.6% 0in /  0.0mm
17:49 80.2 °F /  26.8 °C 55.6 °F /  13.1 °C 29.7in /  1006.6hPa NE 15.2mph /  24.5km/h 25mph /  40.2km/h 42.7% 0in /  0.0mm
17:54 79.9 °F /  26.6 °C 55 °F /  12.8 °C 29.7in /  1006.6hPa NE 14.5mph /  23.3km/h 25mph /  40.2km/h 42.6% 0in /  0.0mm
17:59 79.5 °F /  26.4 °C 55 °F /  12.8 °C 29.7in /  1006.6hPa NE 15mph /  24.1km/h 27.6mph /  44.4km/h 43% 0in /  0.0mm
18:04 79.5 °F /  26.4 °C 55 °F /  12.8 °C 29.7in /  1006.9hPa NNE 15.6mph /  25.1km/h 28mph /  45.1km/h 43.1% 0in /  0.0mm
18:09 79.9 °F /  26.6 °C 55 °F /  12.8 °C 29.7in /  1006.9hPa NE 15.5mph /  24.9km/h 25mph /  40.2km/h 42.7% 0in /  0.0mm
18:14 79.9 °F /  26.6 °C 54.1 °F /  12.3 °C 29.7in /  1006.9hPa NE 15.2mph /  24.5km/h 24.6mph /  39.6km/h 41.1% 0in /  0.0mm
18:19 79.9 °F /  26.6 °C 54 °F /  12.2 °C 29.7in /  1007.0hPa NE 15mph /  24.2km/h 25.6mph /  41.2km/h 40.9% 0in /  0.0mm
18:24 79.3 °F /  26.3 °C 53.4 °F /  11.9 °C 29.7in /  1007.0hPa NE 14.7mph /  23.7km/h 26mph /  41.8km/h 40.6% 0in /  0.0mm
18:29 79.3 °F /  26.3 °C 52.7 °F /  11.5 °C 29.7in /  1007.0hPa NE 14.5mph /  23.3km/h 24mph /  38.6km/h 39.6% 0in /  0.0mm
18:34 79.2 °F /  26.2 °C 52.2 °F /  11.2 °C 29.7in /  1007.1hPa NE 14mph /  22.5km/h 24.6mph /  39.6km/h 39% 0in /  0.0mm
18:39 78.6 °F /  25.9 °C 51.6 °F /  10.9 °C 29.7in /  1007.1hPa NE 14.5mph /  23.4km/h 25mph /  40.2km/h 39% 0in /  0.0mm
18:44 78.4 °F /  25.8 °C 52.2 °F /  11.2 °C 29.7in /  1007.1hPa NE 15.6mph /  25.1km/h 25mph /  40.2km/h 40.2% 0in /  0.0mm
18:49 78.3 °F /  25.7 °C 52.7 °F /  11.5 °C 29.7in /  1007.3hPa NE 15mph /  24.2km/h 22mph /  35.4km/h 41% 0in /  0.0mm
18:54 78.3 °F /  25.7 °C 52.3 °F /  11.3 °C 29.7in /  1007.3hPa NE 14mph /  22.5km/h 22mph /  35.4km/h 40.8% 0in /  0.0mm
18:59 77.9 °F /  25.5 °C 52.5 °F /  11.4 °C 29.7in /  1007.3hPa NE 13.4mph /  21.5km/h 23.5mph /  37.8km/h 41.3% 0in /  0.0mm
19:04 77.4 °F /  25.2 °C 52.5 °F /  11.4 °C 29.8in /  1007.4hPa NE 12.5mph /  20.1km/h 23mph /  37km/h 42% 0in /  0.0mm
19:09 77 °F /  25 °C 52.5 °F /  11.4 °C 29.8in /  1007.4hPa NE 13mph /  20.9km/h 22.3mph /  35.9km/h 42.6% 0in /  0.0mm
19:14 76.6 °F /  24.8 °C 52.7 °F /  11.5 °C 29.8in /  1007.4hPa NE 14mph /  22.5km/h 22mph /  35.4km/h 43.3% 0in /  0.0mm
19:19 76.3 °F /  24.6 °C 52.7 °F /  11.5 °C 29.8in /  1007.6hPa NE 14mph /  22.5km/h 23mph /  37km/h 43.9% 0in /  0.0mm
19:24 75.9 °F /  24.4 °C 52.7 °F /  11.5 °C 29.8in /  1007.6hPa NE 14mph /  22.5km/h 23mph /  37km/h 44.4% 0in /  0.0mm
19:29 75.6 °F /  24.2 °C 53.6 °F /  12 °C 29.8in /  1007.6hPa NE 13.5mph /  21.7km/h 22mph /  35.4km/h 46.5% 0in /  0.0mm
19:34 75.6 °F /  24.2 °C 54.3 °F /  12.4 °C 29.8in /  1007.9hPa NE 12.5mph /  20.1km/h 20.4mph /  32.8km/h 47.8% 0in /  0.0mm
19:39 75 °F /  23.9 °C 54 °F /  12.2 °C 29.8in /  1007.9hPa NE 12.5mph /  20.1km/h 21.9mph /  35.2km/h 48% 0in /  0.0mm
19:44 74.7 °F /  23.7 °C 54.5 °F /  12.5 °C 29.8in /  1007.9hPa NE 12.5mph /  20.1km/h 22mph /  35.4km/h 49.5% 0in /  0.0mm
19:49 74.3 °F /  23.5 °C 54.7 °F /  12.6 °C 29.8in /  1008.0hPa NE 12.4mph /  20km/h 21mph /  33.8km/h 50.5% 0in /  0.0mm
19:54 73.9 °F /  23.3 °C 54.7 °F /  12.6 °C 29.8in /  1008.0hPa NE 12.3mph /  19.8km/h 21.3mph /  34.3km/h 51.3% 0in /  0.0mm
19:59 73.4 °F /  23 °C 54.7 °F /  12.6 °C 29.8in /  1008.0hPa NE 12.8mph /  20.6km/h 21mph /  33.8km/h 52% 0in /  0.0mm
20:04 73 °F /  22.8 °C 55 °F /  12.8 °C 29.8in /  1008.2hPa NE 13.5mph /  21.7km/h 19.7mph /  31.7km/h 53.2% 0in /  0.0mm
20:09 72.9 °F /  22.7 °C 55.8 °F /  13.2 °C 29.8in /  1008.2hPa NE 12.7mph /  20.5km/h 20mph /  32.2km/h 55% 0in /  0.0mm
20:14 72.3 °F /  22.4 °C 55.8 °F /  13.2 °C 29.8in /  1008.2hPa NE 11.2mph /  18km/h 19.6mph /  31.5km/h 56% 0in /  0.0mm
20:19 72 °F /  22.2 °C 55.4 °F /  13 °C 29.8in /  1008.4hPa NE 11.2mph /  18km/h 20mph /  32.2km/h 56% 0in /  0.0mm
20:24 71.4 °F /  21.9 °C 55 °F /  12.8 °C 29.8in /  1008.4hPa NNE 11.2mph /  18km/h 18.4mph /  29.6km/h 56.1% 0in /  0.0mm
20:29 71.1 °F /  21.7 °C 55 °F /  12.8 °C 29.8in /  1008.4hPa NE 10.7mph /  17.2km/h 18.4mph /  29.6km/h 56.7% 0in /  0.0mm
20:34 70.9 °F /  21.6 °C 55 °F /  12.8 °C 29.8in /  1008.8hPa NE 9.7mph /  15.6km/h 18mph /  29km/h 57.3% 0in /  0.0mm
20:39 70.5 °F /  21.4 °C 55.2 °F /  12.9 °C 29.8in /  1008.8hPa NE 9.9mph /  15.9km/h 17.3mph /  27.8km/h 58.5% 0in /  0.0mm
20:44 70.3 °F /  21.3 °C 55.4 °F /  13 °C 29.8in /  1008.8hPa NE 10.2mph /  16.4km/h 18.4mph /  29.6km/h 59.4% 0in /  0.0mm
20:49 70 °F /  21.1 °C 55.6 °F /  13.1 °C 29.8in /  1009.0hPa NE 10.6mph /  17km/h 18mph /  29km/h 60% 0in /  0.0mm
20:54 70 °F /  21.1 °C 55.8 °F /  13.2 °C 29.8in /  1009.0hPa NE 11.2mph /  18km/h 17mph /  27.4km/h 60.8% 0in /  0.0mm
20:59 69.8 °F /  21 °C 56.1 °F /  13.4 °C 29.8in /  1009.0hPa NE 10.4mph /  16.7km/h 15.9mph /  25.6km/h 61.9% 0in /  0.0mm
21:04 69.4 °F /  20.8 °C 56.1 °F /  13.4 °C 29.8in /  1009.3hPa NE 9.2mph /  14.8km/h 16.1mph /  25.9km/h 62.4% 0in /  0.0mm
21:09 69.3 °F /  20.7 °C 56.3 °F /  13.5 °C 29.8in /  1009.3hPa NE 9.7mph /  15.6km/h 17.3mph /  27.8km/h 63.1% 0in /  0.0mm
21:14 69.1 °F /  20.6 °C 56.5 °F /  13.6 °C 29.8in /  1009.3hPa NE 10.7mph /  17.2km/h 17.3mph /  27.8km/h 64.2% 0in /  0.0mm
21:19 68.9 °F /  20.5 °C 56.7 °F /  13.7 °C 29.8in /  1009.6hPa NE 10.4mph /  16.8km/h 17mph /  27.4km/h 65.3% 0in /  0.0mm
21:24 68.7 °F /  20.4 °C 57 °F /  13.9 °C 29.8in /  1009.6hPa NE 10mph /  16.1km/h 15mph /  24.1km/h 66.4% 0in /  0.0mm
21:29 68.5 °F /  20.3 °C 57.9 °F /  14.4 °C 29.8in /  1009.6hPa NE 9.3mph /  15km/h 14mph /  22.5km/h 68.9% 0in /  0.0mm
21:34 68.4 °F /  20.2 °C 58.5 °F /  14.7 °C 29.8in /  1009.7hPa NE 8.1mph /  13km/h 14mph /  22.5km/h 70.7% 0in /  0.0mm
21:39 68.2 °F /  20.1 °C 58.8 °F /  14.9 °C 29.8in /  1009.7hPa NE 8.5mph /  13.7km/h 15mph /  24.1km/h 72.2% 0in /  0.0mm
21:44 67.8 °F /  19.9 °C 59 °F /  15 °C 29.8in /  1009.7hPa NE 9.2mph /  14.8km/h 15mph /  24.1km/h 73.3% 0in /  0.0mm
21:49 67.6 °F /  19.8 °C 59.2 °F /  15.1 °C 29.8in /  1009.9hPa NE 8.8mph /  14.2km/h 16.1mph /  25.9km/h 74.3% 0in /  0.0mm
21:54 67.5 °F /  19.7 °C 59.5 °F /  15.3 °C 29.8in /  1009.9hPa NE 8.1mph /  13km/h 16mph /  25.7km/h 75.4% 0in /  0.0mm
21:59 67.3 °F /  19.6 °C 59.5 °F /  15.3 °C 29.8in /  1009.9hPa NE 8.8mph /  14.1km/h 19mph /  30.6km/h 76.4% 0in /  0.0mm
22:04 67.1 °F /  19.5 °C 59.5 °F /  15.3 °C 29.8in /  1010.3hPa NE 9.7mph /  15.6km/h 19mph /  30.6km/h 77% 0in /  0.0mm
22:09 66.9 °F /  19.4 °C 59.7 °F /  15.4 °C 29.8in /  1010.3hPa NE 9mph /  14.5km/h 16.1mph /  25.9km/h 77.5% 0in /  0.0mm
22:14 66.7 °F /  19.3 °C 59.9 °F /  15.5 °C 29.8in /  1010.3hPa NE 7.6mph /  12.2km/h 16.3mph /  26.2km/h 78.3% 0in /  0.0mm
22:19 66.7 °F /  19.3 °C 59.9 °F /  15.5 °C 29.9in /  1010.8hPa NE 8mph /  12.8km/h 16.1mph /  25.9km/h 79% 0in /  0.0mm
22:24 66.6 °F /  19.2 °C 59.7 °F /  15.4 °C 29.9in /  1010.8hPa NE 8.7mph /  14km/h 14mph /  22.5km/h 79% 0in /  0.0mm
22:29 66.6 °F /  19.2 °C 59.7 °F /  15.4 °C 29.9in /  1010.8hPa NE 7.9mph /  12.7km/h 13mph /  20.9km/h 79% 0in /  0.0mm
22:34 66.6 °F /  19.2 °C 59.7 °F /  15.4 °C 29.9in /  1011.0hPa NE 6.4mph /  10.3km/h 12mph /  19.3km/h 78.5% 0in /  0.0mm
22:39 66.6 °F /  19.2 °C 59.5 °F /  15.3 °C 29.9in /  1011.0hPa NE 6.4mph /  10.3km/h 13.5mph /  21.7km/h 78% 0in /  0.0mm
22:44 66.6 °F /  19.2 °C 59.4 °F /  15.2 °C 29.9in /  1011.0hPa NE 6.4mph /  10.3km/h 14mph /  22.5km/h 78% 0in /  0.0mm
22:49 66.6 °F /  19.2 °C 59.5 °F /  15.3 °C 29.9in /  1011.4hPa NE 6.2mph /  10km/h 14mph /  22.5km/h 78.1% 0in /  0.0mm
22:54 66.6 °F /  19.2 °C 59.7 °F /  15.4 °C 29.9in /  1011.4hPa NE 5.9mph /  9.5km/h 10.2mph /  16.4km/h 79% 0in /  0.0mm
22:59 66.4 °F /  19.1 °C 59.7 °F /  15.4 °C 29.9in /  1011.4hPa NE 5.7mph /  9.2km/h 10.4mph /  16.7km/h 79% 0in /  0.0mm
23:04 66.4 °F /  19.1 °C 59.9 °F /  15.5 °C 29.9in /  1011.5hPa NE 5.4mph /  8.7km/h 13mph /  20.9km/h 79.7% 0in /  0.0mm
23:09 66.4 °F /  19.1 °C 59.9 °F /  15.5 °C 29.9in /  1011.5hPa NE 6.2mph /  9.9km/h 13.5mph /  21.7km/h 80% 0in /  0.0mm
23:14 66.2 °F /  19 °C 59.7 °F /  15.4 °C 29.9in /  1011.5hPa NE 7.4mph /  11.9km/h 13mph /  20.9km/h 80% 0in /  0.0mm
23:19 66.2 °F /  19 °C 59.9 °F /  15.5 °C 29.9in /  1011.6hPa NE 7.2mph /  11.6km/h 13mph /  20.9km/h 80.2% 0in /  0.0mm
23:24 66.2 °F /  19 °C 60.3 °F /  15.7 °C 29.9in /  1011.6hPa NE 6.9mph /  11.1km/h 13mph /  20.9km/h 81% 0in /  0.0mm
23:29 66.4 °F /  19.1 °C 60.3 °F /  15.7 °C 29.9in /  1011.6hPa NE 6.9mph /  11.1km/h 11.5mph /  18.5km/h 81% 0in /  0.0mm
23:34 66.4 °F /  19.1 °C 60.4 °F /  15.8 °C 29.9in /  1011.8hPa NE 6.9mph /  11.1km/h 12mph /  19.3km/h 81% 0in /  0.0mm
23:39 66.6 °F /  19.2 °C 60.4 °F /  15.8 °C 29.9in /  1011.8hPa NE 6.6mph /  10.7km/h 10.7mph /  17.2km/h 80.8% 0in /  0.0mm
23:44 66.6 °F /  19.2 °C 60.4 °F /  15.8 °C 29.9in /  1011.8hPa NE 6.2mph /  10km/h 11mph /  17.7km/h 80.5% 0in /  0.0mm
23:49 66.6 °F /  19.2 °C 60.3 °F /  15.7 °C 29.9in /  1011.8hPa NNE 5.9mph /  9.5km/h 10.4mph /  16.7km/h 80.1% 0in /  0.0mm
23:54 66.6 °F /  19.2 °C 60.3 °F /  15.7 °C 29.9in /  1011.8hPa NE 5.4mph /  8.7km/h 12.5mph /  20.1km/h 80.4% 0in /  0.0mm
23:59 66.6 °F /  19.2 °C 60.4 °F /  15.8 °C 29.9in /  1011.8hPa NE 6mph /  9.7km/h 15mph /  24.1km/h 80.2% 0in /  0.0mm
Murcia-Puente Tocinos, España
Compliments of Weather Underground - 3 mb

La estación de MeteoMurcia.com, publica sus datos en los siguientes proyectos:

Weather Underground PWS IMURCIAP2 Meteoclimatic www.awekas.at

W3Counter
Web Analytics